Latest Weather Observations for Coolangatta

IDN60801

Issued at 11:35 pm EST Tuesday 30 September 2014 (issued every 30 minutes, with the page automatically refreshed every 10 minutes)

About weather observations | Map of weather stations | Latest weather observations for NSW | Other Formats
Station Details ID: 040717 Name: COOLANGATTA Lat: -28.17 Lon: 153.51 Height: 4.0 m
Data from the previous 72 hours. | See also: Recent months at Coolangatta
Date/Time
EST
Temp
°C
App
Temp
°C
Dew
Point
Rel
Hum
%
Delta-T
°C
Wind Press
QNH
hPa
Press
MSL
hPa
Rain
since 9 am
mm
Dir
 
Spd
km/h
Gust
km/h
Spd
kts
Gust
kts
30/11:30pm 19.0 18.3 15.5 80 2.1 NNW 13 19 7 10 1017.9 1017.9 0.0
30/11:00pm 19.1 18.5 15.6 80 2.1 NNW 13 20 7 11 1018.1 1018.1 0.0
30/10:30pm 19.0 18.3 15.5 80 2.1 NW 13 19 7 10 1018.3 1018.3 0.0
30/10:00pm 19.1 18.3 15.2 78 2.3 NNW 13 19 7 10 1018.3 1018.3 0.0
30/09:30pm 19.7 19.0 15.4 76 2.5 NNW 13 20 7 11 1018.4 1018.4 0.0
30/09:00pm 19.8 18.7 15.4 76 2.6 NNW 15 20 8 11 1018.6 1018.6 0.0
30/08:30pm 20.3 18.4 15.3 73 3.0 NNW 19 26 10 14 1018.7 1018.7 0.0
30/08:00pm 20.3 18.5 16.1 77 2.5 NNW 20 28 11 15 1018.5 1018.5 0.0
30/07:30pm 20.6 17.4 16.2 76 2.6 N 28 35 15 19 1018.2 1018.2 0.0
30/07:00pm 20.7 17.7 16.9 79 2.3 N 28 37 15 20 1017.9 1017.9 0.0
30/06:30pm 20.5 17.5 16.9 80 2.2 N 28 35 15 19 1017.7 1017.7 0.0
30/06:00pm 20.8 17.3 16.6 77 2.5 N 30 37 16 20 1017.5 1017.5 0.0
30/05:30pm 21.0 17.5 16.4 75 2.8 N 30 37 16 20 1017.3 1017.3 0.0
30/05:00pm 21.4 17.5 16.4 73 3.0 N 32 39 17 21 1017.1 1017.1 0.0
30/04:30pm 21.7 17.8 16.4 72 3.2 N 32 39 17 21 1016.9 1016.9 0.0
30/04:00pm 22.1 18.0 16.4 70 3.5 N 33 41 18 22 1017.0 1017.0 0.0
30/03:30pm 22.6 19.0 16.2 67 3.9 N 30 39 16 21 1016.9 1016.9 0.0
30/03:00pm 23.1 19.0 16.4 66 4.1 N 33 46 18 25 1017.1 1017.1 0.0
30/02:30pm 23.1 18.3 15.7 63 4.5 N 35 44 19 24 1017.1 1017.1 0.0
30/02:00pm 23.4 18.9 15.5 61 4.7 N 33 43 18 23 1017.3 1017.3 0.0
30/01:30pm 23.3 18.5 15.6 62 4.6 N 35 43 19 23 1017.5 1017.5 0.0
30/01:00pm 24.1 19.4 14.8 56 5.5 N 33 44 18 24 1017.8 1017.8 0.0
30/12:30pm 24.1 18.3 12.7 49 6.6 N 35 43 19 23 1018.2 1018.2 0.0
30/12:00pm 24.7 19.6 13.6 50 6.5 N 33 43 18 23 1018.6 1018.6 0.0
30/11:30am 24.0 18.5 12.3 48 6.7 N 33 43 18 23 1018.9 1018.9 0.0
30/11:00am 24.6 20.4 14.7 54 5.9 N 30 39 16 21 1019.3 1019.3 0.0
30/10:30am 23.2 18.7 13.9 56 5.4 N 30 39 16 21 1019.8 1019.8 0.0
30/10:00am 23.6 19.7 14.3 56 5.5 N 28 35 15 19 1020.2 1020.2 0.0
30/09:30am 23.1 18.9 14.7 59 5.0 N 30 35 16 19 1020.4 1020.4 0.0
30/09:00am 22.9 19.2 15.0 61 4.7 N 28 33 15 18 1020.5 1020.5 0.0
30/08:30am 22.1 18.8 14.0 60 4.7 N 24 30 13 16 1020.4 1020.4 0.0
30/08:00am 21.5 18.9 13.7 61 4.5 N 20 28 11 15 1020.4 1020.4 0.0
30/07:30am 20.6 18.0 13.3 63 4.2 NNW 19 26 10 14 1020.3 1020.3 0.0
30/07:00am 19.5 16.7 12.7 65 3.8 NNW 19 24 10 13 1020.2 1020.2 0.0
30/06:30am 18.4 15.7 12.8 70 3.1 NNW 19 26 10 14 1020.0 1020.0 0.0
30/06:00am 17.5 15.3 12.2 71 2.9 NNW 15 20 8 11 1019.8 1019.8 0.0
30/05:30am 16.4 14.2 12.0 75 2.4 N 15 17 8 9 1019.6 1019.6 0.0
30/05:00am 16.9 14.7 12.0 73 2.7 N 15 20 8 11 1019.3 1019.3 0.0
30/04:30am 17.4 15.7 12.5 73 2.7 NNW 13 19 7 10 1019.0 1019.0 0.0
30/04:00am 17.2 15.5 12.5 74 2.6 NW 13 20 7 11 1018.6 1018.6 0.0
30/03:30am 17.3 15.6 12.6 74 2.6 NW 13 19 7 10 1018.6 1018.6 0.0
30/03:00am 17.5 15.9 12.8 74 2.6 NNW 13 19 7 10 1018.7 1018.7 0.0
30/02:30am 17.7 15.8 13.0 74 2.6 NW 15 20 8 11 1018.9 1018.9 0.0
30/02:00am 17.6 16.1 13.1 75 2.5 NW 13 19 7 10 1018.9 1018.9 0.0
30/01:30am 17.5 16.0 13.0 75 2.5 NW 13 17 7 9 1019.1 1019.1 0.0
30/01:00am 17.4 15.9 13.1 76 2.4 NW 13 19 7 10 1019.2 1019.2 0.0
30/12:30am 17.4 16.0 13.3 77 2.3 NW 13 17 7 9 1019.4 1019.4 0.0
30/12:00am 17.1 16.0 13.0 77 2.3 NW 11 15 6 8 1019.6 1019.6 0.0
 
Date/Time
EST
Temp
°C
App
Temp
°C
Dew
Point
Rel
Hum
%
Delta-T
°C
Wind Press
QNH
hPa
Press
MSL
hPa
Rain
since 9 am
mm
Dir
 
Spd
km/h
Gust
km/h
Spd
kts
Gust
kts
29/11:30pm 17.2 16.5 13.1 77 2.3 NW 9 13 5 7 1019.8 1019.8 0.0
29/11:00pm 17.5 16.0 13.2 76 2.4 NW 13 17 7 9 1019.9 1019.9 0.0
29/10:30pm 17.4 16.3 13.1 76 2.4 NW 11 15 6 8 1020.0 1020.0 0.0
29/10:00pm 17.7 16.6 13.2 75 2.5 NW 11 15 6 8 1020.0 1020.0 0.0
29/09:30pm 17.6 16.9 13.1 75 2.5 NW 9 13 5 7 1020.1 1020.1 0.0
29/09:00pm 18.2 16.8 13.3 73 2.8 NW 13 17 7 9 1020.0 1020.0 0.0
29/08:30pm 18.1 17.2 13.6 75 2.6 NW 11 13 6 7 1019.8 1019.8 0.0
29/08:00pm 19.1 17.9 13.9 72 3.0 NNW 13 17 7 9 1019.5 1019.5 0.0
29/07:30pm 19.9 17.2 14.5 71 3.1 N 22 32 12 17 1019.1 1019.1 0.0
29/07:00pm 20.1 15.8 14.5 70 3.3 N 30 37 16 20 1018.8 1018.8 0.0
29/06:30pm 20.2 16.0 14.6 70 3.3 N 30 39 16 21 1018.7 1018.7 0.0
29/06:00pm 20.2 16.8 14.8 71 3.2 N 26 32 14 17 1018.5 1018.5 0.0
29/05:30pm 20.6 17.3 14.9 70 3.3 N 26 32 14 17 1018.2 1018.2 0.0
29/05:00pm 21.1 17.6 14.5 66 3.9 N 26 33 14 18 1018.0 1018.0 0.0
29/04:30pm 21.7 18.7 14.8 65 4.1 N 24 30 13 16 1017.9 1017.9 0.0
29/04:00pm 22.0 18.1 14.4 62 4.4 N 28 35 15 19 1017.7 1017.7 0.0
29/03:30pm 22.2 18.3 14.3 61 4.6 N 28 33 15 18 1017.5 1017.5 0.0
29/03:00pm 22.6 18.8 14.7 61 4.7 N 28 35 15 19 1017.5 1017.5 0.0
29/02:30pm 22.9 19.0 14.5 59 5.0 N 28 35 15 19 1017.6 1017.6 0.0
29/02:00pm 22.6 18.8 14.7 61 4.7 N 28 33 15 18 1017.8 1017.8 0.0
29/01:30pm 22.8 18.8 14.1 58 5.1 N 28 35 15 19 1018.0 1018.0 0.0
29/01:00pm 22.6 18.5 13.9 58 5.1 N 28 35 15 19 1018.3 1018.3 0.0
29/12:30pm 22.8 18.7 13.8 57 5.2 N 28 35 15 19 1018.6 1018.6 0.0
29/12:00pm 22.7 18.8 14.3 59 4.9 N 28 33 15 18 1019.0 1019.0 0.0
29/11:30am 23.2 19.3 14.5 58 5.1 N 28 33 15 18 1019.5 1019.5 0.0
29/11:00am 23.2 19.2 14.2 57 5.3 N 28 33 15 18 1019.8 1019.8 0.0
29/10:30am 22.2 17.7 12.7 55 5.4 N 28 33 15 18 1020.2 1020.2 0.0
29/10:00am 22.5 18.9 13.0 55 5.4 N 24 30 13 16 1020.7 1020.7 0.0
29/09:30am 22.0 18.6 12.5 54 5.4 N 22 28 12 15 1021.1 1021.1 0.0
29/09:00am 21.3 18.2 12.2 56 5.1 N 20 30 11 16 1021.4 1021.4 0.2
29/08:30am 21.2 18.2 12.1 56 5.1 NNW 19 26 10 14 1021.5 1021.5 0.2
29/08:00am 20.5 18.1 12.7 61 4.4 NW 17 22 9 12 1021.5 1021.5 0.2
29/07:30am 19.5 18.0 13.2 67 3.6 WNW 13 15 7 8 1021.4 1021.4 0.2
29/07:00am 17.4 17.4 13.5 78 2.2 W 6 9 3 5 1021.4 1021.4 0.2
29/06:30am 14.2 14.0 13.1 93 0.6 SW 6 7 3 4 1021.2 1021.2 0.2
29/06:00am 12.3 11.6 11.4 94 0.5 SW 6 7 3 4 1021.0 1021.0 0.2
29/05:30am 12.1 12.5 11.2 94 0.5 CALM 0 0 0 0 1020.7 1020.7 0.2
29/05:00am 12.4 12.1 11.5 94 0.5 SW 4 6 2 3 1020.3 1020.3 0.2
29/04:30am 12.5 12.2 11.6 94 0.5 SW 4 6 2 3 1020.0 1020.0 0.2
29/04:00am 12.7 12.1 11.8 94 0.5 SW 6 7 3 4 1019.7 1019.7 0.2
29/03:30am 12.7 12.1 11.8 94 0.5 WSW 6 7 3 4 1019.6 1019.6 0.2
29/03:00am 12.7 12.0 11.4 92 0.7 SW 6 9 3 5 1019.6 1019.6 0.2
29/02:30am 13.2 12.7 12.1 93 0.6 WSW 6 7 3 4 1020.0 1020.0 0.2
29/02:00am 12.9 12.6 11.6 92 0.7 WSW 4 7 2 4 1020.3 1020.3 0.2
29/01:30am 13.2 12.7 11.9 92 0.7 WSW 6 9 3 5 1020.7 1020.7 0.2
29/01:00am 13.4 13.6 11.8 90 0.9 WSW 2 6 1 3 1021.1 1021.1 0.2
29/12:30am 13.8 14.6 12.4 91 0.8 CALM 0 0 0 0 1021.4 1021.4 0.2
29/12:00am 14.1 14.6 12.7 91 0.8 SW 2 6 1 3 1021.6 1021.6 0.2
 
Date/Time
EST
Temp
°C
App
Temp
°C
Dew
Point
Rel
Hum
%
Delta-T
°C
Wind Press
QNH
hPa
Press
MSL
hPa
Rain
since 9 am
mm
Dir
 
Spd
km/h
Gust
km/h
Spd
kts
Gust
kts
28/11:30pm 14.0 13.7 12.6 91 0.8 SW 6 9 3 5 1021.7 1021.7 0.2
28/11:00pm 14.4 14.0 13.0 91 0.8 SSW 7 9 4 5 1021.8 1021.8 0.2
28/10:30pm 14.3 14.2 12.2 87 1.1 SSW 4 7 2 4 1021.9 1021.9 0.2
28/10:00pm 14.8 14.3 12.8 88 1.1 WSW 7 11 4 6 1021.7 1021.7 0.2
28/09:30pm 15.2 14.5 13.1 87 1.2 WSW 9 11 5 6 1021.8 1021.8 0.2
28/09:00pm 15.3 14.5 13.0 86 1.3 WSW 9 11 5 6 1021.8 1021.8 0.2
28/08:30pm 15.5 14.9 13.5 88 1.1 WSW 9 11 5 6 1021.9 1021.9 0.2
28/08:00pm 14.9 14.0 12.6 86 1.3 WSW 9 11 5 6 1021.6 1021.6 0.2
28/07:30pm 15.4 14.9 12.2 81 1.7 SSE 6 7 3 4 1021.2 1021.2 0.2
28/07:00pm 16.4 15.2 11.6 73 2.6 SSE 9 13 5 7 1020.9 1020.9 0.2
28/06:30pm 17.4 16.8 12.3 72 2.8 S 7 7 4 4 1020.8 1020.8 0.2
28/06:00pm 18.0 16.5 12.0 68 3.3 SSE 11 15 6 8 1020.6 1020.6 0.2
28/05:30pm 18.9 17.1 12.2 65 3.7 SE 13 19 7 10 1020.4 1020.4 0.2
28/05:00pm 20.0 17.4 12.0 60 4.4 SE 17 22 9 12 1020.2 1020.2 0.2
28/04:30pm 20.8 17.9 12.2 58 4.8 SE 19 24 10 13 1020.1 1020.1 0.2
28/04:00pm 20.2 16.8 10.6 54 5.2 ESE 19 20 10 11 1019.9 1019.9 0.2
28/03:30pm 20.8 17.2 9.7 49 5.9 SE 19 26 10 14 1020.0 1020.0 0.2
28/03:00pm 22.2 18.1 10.0 46 6.6 SE 22 32 12 17 1019.9 1019.9 0.2
28/02:30pm 22.2 18.4 9.7 45 6.8 ESE 20 28 11 15 1020.0 1020.0 0.2
28/02:00pm 22.4 18.2 11.2 49 6.2 SE 24 32 13 17 1020.2 1020.2 0.2
28/01:30pm 21.9 17.1 11.6 52 5.7 ESE 28 37 15 20 1020.3 1020.3 0.2
28/01:00pm 21.7 17.5 12.5 56 5.2 ESE 26 35 14 19 1020.6 1020.6 0.2
28/12:30pm 21.9 17.8 12.7 56 5.2 ESE 26 35 14 19 1020.8 1020.8 0.2
28/12:00pm 22.3 18.6 11.4 50 6.1 ESE 22 32 12 17 1021.2 1021.2 0.2
28/11:30am 22.4 18.3 11.5 50 6.1 ESE 24 33 13 18 1021.4 1021.4 0.2
28/11:00am 22.4 19.0 12.4 53 5.7 ESE 22 32 12 17 1021.8 1021.8 0.2
28/10:30am 21.3 17.5 11.3 53 5.5 SE 22 32 12 17 1022.2 1022.2 0.0
28/10:00am 20.4 17.6 12.6 61 4.4 SSE 19 22 10 12 1022.6 1022.6 0.0
28/09:30am 20.4 19.4 13.4 64 4.0 S 11 15 6 8 1022.6 1022.6 0.0
28/09:00am 20.3 18.6 13.7 66 3.8 S 15 22 8 12 1022.6 1022.6 6.0
28/08:30am 19.7 17.5 13.4 67 3.6 S 17 24 9 13 1022.5 1022.5 6.0
28/08:00am 18.9 17.6 13.7 72 3.0 S 13 19 7 10 1022.3 1022.3 6.0
28/07:30am 18.0 17.6 14.1 78 2.2 S 9 13 5 7 1022.2 1022.2 6.0
28/07:00am 16.5 16.4 13.8 84 1.5 SSW 7 11 4 6 1022.1 1022.1 6.0
28/06:30am 15.0 14.6 13.0 88 1.1 S 7 9 4 5 1022.0 1022.0 6.0
28/06:00am 14.7 13.8 12.7 88 1.1 SSW 9 13 5 7 1021.6 1021.6 6.0
28/05:30am 14.0 13.1 12.6 91 0.8 S 9 13 5 7 1021.4 1021.4 6.0
28/05:00am 13.9 13.5 12.5 91 0.8 SSW 6 9 3 5 1021.3 1021.3 6.0
28/04:30am 14.8 14.7 13.3 91 0.8 S 6 7 3 4 1021.1 1021.1 6.0
28/04:00am 15.4 14.9 13.8 90 0.9 S 9 11 5 6 1020.8 1020.8 6.0
28/03:30am 14.8 14.0 13.0 89 1.0 SSE 9 13 5 7 1020.6 1020.6 6.0
28/03:00am 15.6 15.0 13.4 87 1.2 SSW 9 13 5 7 1020.6 1020.6 6.0
28/02:30am 16.0 14.4 13.8 87 1.2 SSW 15 20 8 11 1020.8 1020.8 6.0
28/02:00am 15.0 14.4 13.5 91 0.8 S 9 13 5 7 1020.8 1020.8 6.0
28/01:30am 15.5 16.0 14.0 91 0.8 ESE 4 7 2 4 1020.8 1020.8 6.0
28/01:00am 15.9 15.6 14.3 90 0.9 S 9 11 5 6 1021.0 1021.0 6.0
28/12:30am 16.0 16.1 14.5 91 0.9 S 7 11 4 6 1021.3 1021.3 6.0
28/12:00am 16.3 18.0 15.2 93 0.6 CALM 0 0 0 0 1021.7 1021.7 6.0

Other Formats:

Comma delimited format used in spreadsheet applications
http://www.bom.gov.au/fwo/IDN60801/IDN60801.94592.axf

JavaScript Object Notation format (JSON) in row-major order
http://www.bom.gov.au/fwo/IDN60801/IDN60801.94592.json